Time;durP1;ratioP1;P1;durP2;ratioP2;P2;SDS_P1;SDS_P2;PMS_P1;PMS_P2;Temp;Humidity;BMP_temperature;BMP_pressure;BME280_temperature;BME280_humidity;BME280_pressure;Samples;Min_cycle;Max_cycle;Signal;HPM_P1;HPM_P2
2023/03/29 00:01:41;;;;;;;2.65;1.08;;;;;;;-1.65;100.00;98629.38;5138688;28;20051;-67
2023/03/29 00:04:08;;;;;;;2.50;1.45;;;;;;;-1.51;100.00;98638.25;5138653;28;20085;-63
2023/03/29 00:06:35;;;;;;;5.82;1.90;;;;;;;-1.77;100.00;98624.47;5138406;27;20051;-67
2023/03/29 00:09:04;;;;;;;4.20;1.85;;;;;;;-1.78;100.00;98624.78;5138254;28;20408;-67
2023/03/29 00:11:30;;;;;;;3.80;1.40;;;;;;;-1.58;100.00;98637.84;5138626;28;20089;-64
2023/03/29 00:13:56;;;;;;;2.92;1.75;;;;;;;-1.66;100.00;98623.22;5138475;28;20051;-65
2023/03/29 00:16:22;;;;;;;1.23;1.13;;;;;;;-1.64;100.00;98630.19;5138656;28;20146;-65
2023/03/29 00:18:48;;;;;;;1.27;1.17;;;;;;;-1.54;100.00;98627.28;5138131;28;20302;-68
2023/03/29 00:21:16;;;;;;;1.95;1.48;;;;;;;-1.82;100.00;98627.28;5138663;28;20134;-68
2023/03/29 00:23:42;;;;;;;2.55;1.38;;;;;;;-1.74;100.00;98644.59;5137969;28;20051;-66
2023/03/29 00:26:08;;;;;;;1.77;1.27;;;;;;;-1.59;100.00;98649.69;5138218;28;20088;-66
2023/03/29 00:28:34;;;;;;;1.60;1.50;;;;;;;-1.73;100.00;98649.69;5138516;28;20043;-64
2023/03/29 00:31:06;;;;;;;1.60;1.40;;;;;;;-1.76;100.00;98638.75;5138100;28;20118;-66
2023/03/29 00:33:32;;;;;;;0.90;0.85;;;;;;;-1.71;100.00;98642.09;5138043;28;20051;-68
2023/03/29 00:35:58;;;;;;;1.17;1.08;;;;;;;-1.77;100.00;98642.50;5137743;27;20511;-63
2023/03/29 00:38:24;;;;;;;1.88;1.38;;;;;;;-1.71;100.00;98647.47;5138090;28;20079;-63
2023/03/29 00:40:50;;;;;;;2.55;1.40;;;;;;;-1.63;100.00;98640.66;5137831;28;20055;-66
2023/03/29 00:43:16;;;;;;;3.83;1.73;;;;;;;-1.52;100.00;98628.59;5138196;28;20043;-68
2023/03/29 00:45:42;;;;;;;1.42;1.33;;;;;;;-1.70;100.00;98605.28;5137684;28;20097;-63
2023/03/29 00:48:11;;;;;;;3.70;1.58;;;;;;;-1.90;100.00;98609.97;5138111;28;20051;-63
2023/03/29 00:50:42;;;;;;;5.00;1.45;;;;;;;-1.82;100.00;98613.06;5137034;27;20047;-64
2023/03/29 00:53:11;;;;;;;1.65;1.55;;;;;;;-1.58;100.00;98619.03;5137759;28;20133;-64
2023/03/29 00:55:43;;;;;;;1.98;1.80;;;;;;;-1.53;100.00;98608.19;5137656;28;20051;-63
2023/03/29 00:58:12;;;;;;;1.95;1.50;;;;;;;-1.57;100.00;98601.81;5137790;28;20130;-67
2023/03/29 01:00:47;;;;;;;1.48;1.38;;;;;;;-1.63;100.00;98589.59;5137656;28;20055;-64
2023/03/29 01:03:23;;;;;;;4.78;1.58;;;;;;;-1.71;100.00;98593.75;5137906;28;20057;-66
2023/03/29 01:05:52;;;;;;;2.40;1.30;;;;;;;-1.70;100.00;98589.97;5137697;27;20061;-67
2023/03/29 01:08:24;;;;;;;3.17;1.10;;;;;;;-1.77;100.00;98592.22;5137423;28;20079;-68
2023/03/29 01:10:54;;;;;;;0.90;0.90;;;;;;;-1.72;100.00;98602.91;5137823;28;20059;-63
2023/03/29 01:13:26;;;;;;;2.95;1.45;;;;;;;-1.77;100.00;98596.81;5137245;28;20462;-66
2023/03/29 01:15:54;;;;;;;1.27;1.08;;;;;;;-1.71;100.00;98601.00;5137616;28;20143;-63
2023/03/29 01:18:21;;;;;;;3.58;2.08;;;;;;;-1.71;100.00;98599.13;5137624;28;20142;-65
2023/03/29 01:21:04;;;;;;;2.33;1.38;;;;;;;-1.82;100.00;98592.34;5137631;28;20047;-66
2023/03/29 01:23:49;;;;;;;1.33;1.23;;;;;;;-1.83;100.00;98596.13;5137615;28;20143;-67
2023/03/29 01:26:22;;;;;;;2.30;1.67;;;;;;;-1.87;100.00;98597.78;5137111;28;20439;-67
2023/03/29 01:28:54;;;;;;;1.45;1.35;;;;;;;-1.80;100.00;98605.47;5137868;28;20139;-68
2023/03/29 01:31:26;;;;;;;3.05;1.85;;;;;;;-1.56;100.00;98605.31;5136987;28;20377;-68
2023/03/29 01:34:00;;;;;;;1.90;1.80;;;;;;;-1.66;100.00;98595.53;5137212;28;20142;-62
2023/03/29 01:36:30;;;;;;;2.13;0.98;;;;;;;-1.68;100.00;98582.41;5137148;27;20387;-64
2023/03/29 01:38:58;;;;;;;1.23;1.13;;;;;;;-1.59;100.00;98577.13;5137466;28;20439;-63
2023/03/29 01:41:32;;;;;;;4.28;1.50;;;;;;;-1.51;100.00;98564.88;5137215;28;20143;-65
2023/03/29 01:44:05;;;;;;;2.05;1.35;;;;;;;-1.56;100.00;98552.34;5137225;28;20051;-68
2023/03/29 01:46:36;;;;;;;1.42;1.33;;;;;;;-1.62;100.00;98532.03;5137237;28;20055;-67
2023/03/29 01:49:09;;;;;;;2.65;1.48;;;;;;;-1.62;100.00;98537.41;5137003;28;20138;-65
2023/03/29 01:51:39;;;;;;;3.00;1.27;;;;;;;-1.58;100.00;98535.72;5137658;28;20078;-64
2023/03/29 01:54:10;;;;;;;1.70;1.60;;;;;;;-1.53;100.00;98551.75;5137140;28;20315;-67
2023/03/29 01:56:40;;;;;;;1.70;1.45;;;;;;;-1.87;100.00;98519.88;5136844;28;20439;-66
2023/03/29 01:59:10;;;;;;;2.53;1.13;;;;;;;-1.72;100.00;98538.41;5137157;28;20132;-67
2023/03/29 02:01:41;;;;;;;1.90;0.90;;;;;;;-1.64;100.00;98560.28;5137071;27;20184;-66
2023/03/29 02:04:12;;;;;;;4.22;1.30;;;;;;;-1.74;100.00;98554.03;5141000;28;20057;-66
2023/03/29 02:06:40;;;;;;;2.58;1.13;;;;;;;-1.63;100.00;98573.44;5140226;27;20082;-67
2023/03/29 02:09:06;;;;;;;1.83;1.35;;;;;;;-1.62;100.00;98575.03;5140839;28;20054;-61
2023/03/29 02:11:35;;;;;;;1.38;1.25;;;;;;;-1.57;100.00;98566.84;5140125;28;20424;-62
2023/03/29 02:14:00;;;;;;;3.20;1.25;;;;;;;-1.45;100.00;98555.59;5140567;28;20137;-63
2023/03/29 02:16:27;;;;;;;1.33;1.25;;;;;;;-1.78;100.00;98536.13;5140403;28;20065;-64
2023/03/29 02:18:56;;;;;;;1.67;1.55;;;;;;;-1.62;100.00;98548.16;5140670;28;20057;-64
2023/03/29 02:21:29;;;;;;;1.52;1.42;;;;;;;-1.48;100.00;98540.06;5140103;28;20417;-63
2023/03/29 02:24:00;;;;;;;1.67;1.50;;;;;;;-1.54;100.00;98533.22;5140418;28;20051;-64
2023/03/29 02:26:28;;;;;;;2.58;1.30;;;;;;;-1.50;100.00;98523.44;5140375;28;20421;-68
2023/03/29 02:28:57;;;;;;;1.60;1.35;;;;;;;-1.50;100.00;98508.13;5140378;28;20051;-64
2023/03/29 02:31:28;;;;;;;6.55;1.70;;;;;;;-1.33;100.00;98523.63;5139892;28;20090;-65
2023/03/29 02:34:01;;;;;;;1.58;1.48;;;;;;;-1.60;100.00;98486.03;5139851;28;20096;-68
2023/03/29 02:36:32;;;;;;;1.40;1.30;;;;;;;-1.57;100.00;98498.88;5140261;27;20055;-64
2023/03/29 02:39:03;;;;;;;1.83;1.63;;;;;;;-1.66;100.00;98518.41;5139950;28;20212;-69
2023/03/29 02:41:30;;;;;;;2.25;1.30;;;;;;;-1.73;100.00;98527.97;5139812;28;20465;-66
2023/03/29 02:43:58;;;;;;;2.92;1.70;;;;;;;-1.62;100.00;98548.16;5140041;28;20043;-64
2023/03/29 02:46:25;;;;;;;1.70;1.55;;;;;;;-1.59;100.00;98534.13;5139909;28;20051;-67
2023/03/29 02:48:53;;;;;;;1.50;1.27;;;;;;;-1.65;100.00;98527.25;5140016;28;20320;-68
2023/03/29 02:51:23;;;;;;;3.53;1.23;;;;;;;-1.52;100.00;98510.31;5139580;28;20134;-66
2023/03/29 02:53:53;;;;;;;1.35;1.25;;;;;;;-1.63;100.00;98492.00;5139897;28;20055;-65
2023/03/29 02:56:20;;;;;;;1.85;1.60;;;;;;;-1.58;100.00;98486.53;5139530;28;20059;-61
2023/03/29 02:58:46;;;;;;;3.17;1.55;;;;;;;-1.53;100.00;98500.66;5139924;28;20134;-61
2023/03/29 03:01:13;;;;;;;5.95;1.33;;;;;;;-1.48;100.00;98513.19;5139378;28;20093;-64
2023/03/29 03:03:40;;;;;;;1.52;1.42;;;;;;;-1.53;100.00;98511.41;5139654;28;20047;-60
2023/03/29 03:06:06;;;;;;;1.33;1.17;;;;;;;-1.49;100.00;98533.13;5139493;27;20050;-63
2023/03/29 03:08:32;;;;;;;1.13;1.05;;;;;;;-1.60;100.00;98548.66;5139575;28;20051;-61
2023/03/29 03:10:58;;;;;;;1.98;1.70;;;;;;;-1.63;100.00;98556.50;5139384;28;20072;-62
2023/03/29 03:13:24;;;;;;;1.42;1.33;;;;;;;-1.57;100.00;98577.59;5138942;27;20043;-62
2023/03/29 03:15:50;;;;;;;7.68;1.73;;;;;;;-1.66;100.00;98579.41;5139491;28;20325;-66
2023/03/29 03:18:17;;;;;;;4.68;1.88;;;;;;;-1.63;100.00;98589.59;5139316;28;20047;-65
2023/03/29 03:20:45;;;;;;;3.08;1.38;;;;;;;-1.51;100.00;98611.38;5139528;28;20058;-65
2023/03/29 03:23:11;;;;;;;1.40;1.30;;;;;;;-1.51;100.00;98603.31;5139124;28;20366;-61
2023/03/29 03:25:38;;;;;;;1.98;1.40;;;;;;;-1.55;100.00;98614.97;5139442;28;20043;-61
2023/03/29 03:28:04;;;;;;;1.80;1.70;;;;;;;-1.65;100.00;98621.31;5138940;28;20051;-62
2023/03/29 03:30:30;;;;;;;2.08;1.55;;;;;;;-1.39;100.00;98634.28;5139403;28;20057;-65
2023/03/29 03:32:56;;;;;;;2.05;1.83;;;;;;;-1.39;100.00;98626.22;5138952;28;20058;-67
2023/03/29 03:35:22;;;;;;;1.88;1.15;;;;;;;-1.36;100.00;98625.63;5139063;27;20082;-67
2023/03/29 03:37:48;;;;;;;1.58;1.48;;;;;;;-1.33;100.00;98615.06;5139130;28;20104;-64
2023/03/29 03:40:14;;;;;;;1.73;1.58;;;;;;;-1.44;100.00;98597.53;5139010;28;20047;-61
2023/03/29 03:42:41;;;;;;;2.42;1.67;;;;;;;-1.59;100.00;98590.56;5139069;28;20137;-66
2023/03/29 03:45:08;;;;;;;1.45;1.15;;;;;;;-1.38;100.00;98592.84;5138785;28;20142;-65
2023/03/29 03:47:36;;;;;;;1.25;1.15;;;;;;;-1.48;100.00;98554.31;5139040;28;20381;-64
2023/03/29 03:50:02;;;;;;;1.60;1.50;;;;;;;-1.54;100.00;98531.31;5138850;28;20051;-60
2023/03/29 03:52:28;;;;;;;2.90;1.65;;;;;;;-1.48;100.00;98510.50;5139090;28;20146;-63
2023/03/29 03:54:54;;;;;;;2.65;1.45;;;;;;;-1.40;100.00;98464.06;5138553;28;20054;-61
2023/03/29 03:57:21;;;;;;;1.45;1.10;;;;;;;-1.22;100.00;98443.53;5139204;28;20090;-64
2023/03/29 03:59:48;;;;;;;1.15;1.02;;;;;;;-1.33;100.00;98391.88;5138432;28;20051;-64
2023/03/29 04:02:14;;;;;;;5.30;1.50;;;;;;;-1.23;100.00;98374.69;5138393;28;20051;-64
2023/03/29 04:04:41;;;;;;;1.42;1.33;;;;;;;-1.13;100.00;98354.81;5138573;27;20051;-62
2023/03/29 04:07:08;;;;;;;0.88;0.88;;;;;;;-1.21;100.00;98302.56;5138314;28;20062;-63
2023/03/29 04:09:35;;;;;;;1.83;1.70;;;;;;;-1.15;100.00;98292.47;5138403;28;20104;-65
2023/03/29 04:12:01;;;;;;;1.33;1.23;;;;;;;-1.24;100.00;98266.31;5138214;28;20146;-65
2023/03/29 04:14:27;;;;;;;1.92;1.67;;;;;;;-1.26;100.00;98273.13;5138800;28;20054;-62
2023/03/29 04:16:54;;;;;;;1.30;1.27;;;;;;;-1.26;100.00;98267.75;5138355;28;20313;-64
2023/03/29 04:19:20;;;;;;;1.83;1.20;;;;;;;-1.30;100.00;98267.56;5138516;28;20146;-65
2023/03/29 04:21:48;;;;;;;1.58;1.45;;;;;;;-1.07;100.00;98307.84;5138476;28;20130;-62
2023/03/29 04:24:14;;;;;;;1.30;1.20;;;;;;;-1.09;100.00;98286.66;5137749;27;20108;-65
2023/03/29 04:26:40;;;;;;;1.63;1.25;;;;;;;-1.24;100.00;98268.22;5137600;28;20651;-67
2023/03/29 04:29:06;;;;;;;1.50;1.40;;;;;;;-1.24;100.00;98276.28;5138389;28;20051;-65
2023/03/29 04:31:32;;;;;;;3.28;1.20;;;;;;;-1.19;100.00;98281.53;5138179;28;20395;-63
2023/03/29 04:33:59;;;;;;;3.17;1.70;;;;;;;-1.24;100.00;98292.41;5138200;28;20093;-62
2023/03/29 04:36:25;;;;;;;1.40;1.30;;;;;;;-1.21;100.00;98324.88;5138137;27;20137;-63
2023/03/29 04:38:51;;;;;;;2.13;1.50;;;;;;;-1.16;100.00;98350.84;5137868;28;20047;-62
2023/03/29 04:41:17;;;;;;;1.15;0.90;;;;;;;-1.21;100.00;98343.69;5138033;28;20051;-66
2023/03/29 04:43:45;;;;;;;1.75;1.38;;;;;;;-1.07;100.00;98386.66;5137859;28;20385;-64
2023/03/29 04:46:11;;;;;;;1.30;1.30;;;;;;;-1.16;100.00;98387.72;5137958;28;20086;-62
2023/03/29 04:48:38;;;;;;;1.70;1.52;;;;;;;-1.23;100.00;98372.00;5137799;28;20054;-65
2023/03/29 04:51:05;;;;;;;2.13;1.38;;;;;;;-1.24;100.00;98381.16;5137890;28;20357;-62
2023/03/29 04:53:31;;;;;;;5.82;1.70;;;;;;;-1.23;100.00;98388.16;5137085;28;20130;-64
2023/03/29 04:55:58;;;;;;;4.50;1.88;;;;;;;-1.11;100.00;98380.31;5137844;28;20066;-62
2023/03/29 04:58:24;;;;;;;1.10;0.93;;;;;;;-1.02;100.00;98386.53;5137248;28;20058;-63
2023/03/29 05:00:50;;;;;;;1.70;1.20;;;;;;;-0.98;100.00;98379.44;5137406;28;20047;-62
2023/03/29 05:03:16;;;;;;;1.67;1.30;;;;;;;-0.82;100.00;98379.84;5137555;28;20357;-64
2023/03/29 05:05:42;;;;;;;1.92;1.25;;;;;;;-1.15;100.00;98328.22;5137221;27;20054;-65
2023/03/29 05:08:09;;;;;;;4.72;1.40;;;;;;;-0.87;100.00;98331.53;5137453;28;20133;-63
2023/03/29 05:10:36;;;;;;;2.33;1.67;;;;;;;-1.00;100.00;98300.94;5137330;28;20051;-64
2023/03/29 05:13:02;;;;;;;3.70;1.55;;;;;;;-0.95;100.00;98314.25;5137480;28;20138;-65
2023/03/29 05:15:29;;;;;;;1.35;1.25;;;;;;;-0.90;100.00;98328.66;5137229;28;20050;-63
2023/03/29 05:17:55;;;;;;;1.75;1.45;;;;;;;-0.90;100.00;98315.22;5137186;28;20084;-65
2023/03/29 05:20:22;;;;;;;1.63;1.52;;;;;;;-0.78;100.00;98301.97;5136984;28;20050;-67
2023/03/29 05:22:48;;;;;;;2.17;1.52;;;;;;;-0.68;100.00;98317.03;5137506;28;20074;-67
2023/03/29 05:25:16;;;;;;;1.77;1.63;;;;;;;-0.75;100.00;98336.34;5137164;28;20425;-67
2023/03/29 05:27:44;;;;;;;1.48;1.35;;;;;;;-0.85;100.00;98323.16;5137232;28;20047;-65
2023/03/29 05:30:12;;;;;;;3.30;1.42;;;;;;;-0.96;100.00;98314.56;5137007;28;20057;-62
2023/03/29 05:32:38;;;;;;;1.75;1.25;;;;;;;-0.89;100.00;98324.88;5136834;28;20054;-66
2023/03/29 05:35:05;;;;;;;2.92;1.80;;;;;;;-1.26;100.00;98316.16;5136793;27;20055;-67
2023/03/29 05:37:32;;;;;;;2.15;1.70;;;;;;;-1.14;100.00;98370.16;5139933;27;20145;-68
2023/03/29 05:39:58;;;;;;;1.35;1.25;;;;;;;-1.09;100.00;98396.16;5140642;28;20051;-67
2023/03/29 05:42:25;;;;;;;1.88;1.25;;;;;;;-1.06;100.00;98417.06;5140482;28;20059;-64
2023/03/29 05:44:51;;;;;;;3.60;1.20;;;;;;;-0.96;100.00;98425.66;5139880;28;20047;-65
2023/03/29 05:47:17;;;;;;;3.05;1.27;;;;;;;-0.97;100.00;98421.41;5140217;28;20143;-67
2023/03/29 05:49:43;;;;;;;15.63;1.42;;;;;;;-0.84;100.00;98416.22;5140326;28;20055;-60
2023/03/29 05:52:09;;;;;;;2.67;1.52;;;;;;;-0.89;100.00;98357.97;5140018;28;20051;-65
2023/03/29 05:54:35;;;;;;;2.28;1.42;;;;;;;-0.77;100.00;98323.19;5140273;28;20447;-69
2023/03/29 05:57:01;;;;;;;2.80;1.00;;;;;;;-0.83;100.00;98245.63;5139786;28;20050;-65
2023/03/29 05:59:28;;;;;;;1.60;1.50;;;;;;;-0.81;100.00;98216.47;5140065;28;20095;-64
2023/03/29 06:01:54;;;;;;;2.17;1.60;;;;;;;-0.60;100.00;98206.72;5140178;28;20043;-59
2023/03/29 06:04:20;;;;;;;1.00;1.00;;;;;;;-0.75;100.00;98139.88;5139598;27;20188;-65
2023/03/29 06:06:47;;;;;;;6.15;1.30;;;;;;;-0.65;100.00;98133.38;5139985;28;20129;-59
2023/03/29 06:09:13;;;;;;;1.23;1.13;;;;;;;-0.55;100.00;98060.38;5139920;28;20058;-60
2023/03/29 06:11:39;;;;;;;1.45;1.35;;;;;;;-0.56;100.00;98021.13;5139974;28;20047;-63
2023/03/29 06:14:06;;;;;;;1.08;1.00;;;;;;;-0.60;100.00;97939.41;5139449;28;20059;-64
2023/03/29 06:16:32;;;;;;;2.58;1.52;;;;;;;-0.72;100.00;97897.03;5139876;28;20358;-64
2023/03/29 06:18:58;;;;;;;1.15;1.13;;;;;;;-0.72;100.00;97895.13;5139830;28;20075;-64
2023/03/29 06:21:26;;;;;;;0.90;0.90;;;;;;;-0.48;100.00;97899.94;5140112;28;20203;-62
2023/03/29 06:23:51;;;;;;;2.42;1.50;;;;;;;-0.61;100.00;97830.94;5139190;28;20376;-62
2023/03/29 06:26:18;;;;;;;1.50;1.25;;;;;;;-0.30;100.00;97841.41;5139161;28;20158;-65
2023/03/29 06:28:45;;;;;;;2.22;1.48;;;;;;;-0.28;100.00;97833.00;5139272;28;20150;-61
2023/03/29 06:31:11;;;;;;;1.30;1.17;;;;;;;-0.25;100.00;97797.34;5139472;28;20118;-64
2023/03/29 06:33:39;;;;;;;2.13;1.23;;;;;;;-0.19;100.00;97771.78;5139480;28;20054;-63
2023/03/29 06:36:06;;;;;;;1.80;1.60;;;;;;;-0.04;100.00;97768.50;5138977;27;20051;-62
2023/03/29 06:38:33;;;;;;;1.77;1.55;;;;;;;0.05;100.00;97756.88;5139606;28;20093;-61
2023/03/29 06:41:03;;;;;;;10.20;1.92;;;;;;;0.04;100.00;97712.97;5139195;28;20101;-61
2023/03/29 06:43:30;;;;;;;1.80;1.20;;;;;;;-0.02;100.00;97701.59;5139266;28;20047;-63
2023/03/29 06:45:56;;;;;;;5.32;2.97;;;;;;;0.11;100.00;97712.44;5138808;28;20310;-66
2023/03/29 06:48:22;;;;;;;2.92;1.38;;;;;;;0.07;100.00;97663.00;5138361;27;20054;-67
2023/03/29 06:50:49;;;;;;;2.78;1.30;;;;;;;0.02;100.00;97657.84;5138935;28;20072;-66
2023/03/29 06:53:14;;;;;;;2.25;1.40;;;;;;;0.12;100.00;97649.34;5139125;28;20058;-67
2023/03/29 06:55:40;;;;;;;0.90;0.90;;;;;;;0.14;100.00;97618.25;5139088;28;20047;-63
2023/03/29 06:58:08;;;;;;;5.00;1.63;;;;;;;-0.01;100.00;97614.28;5138781;28;20051;-63
2023/03/29 07:00:36;;;;;;;2.47;1.60;;;;;;;-0.10;100.00;97592.03;5139048;28;20076;-64
2023/03/29 07:03:05;;;;;;;2.75;1.38;;;;;;;0.02;100.00;97612.03;5139003;28;20114;-63
2023/03/29 07:05:32;;;;;;;1.63;1.52;;;;;;;-0.05;100.00;97602.59;5138920;27;20050;-64
2023/03/29 07:08:01;;;;;;;4.07;1.90;;;;;;;0.40;100.00;97666.50;5138593;28;20047;-64
2023/03/29 07:10:31;;;;;;;1.63;1.52;;;;;;;0.25;100.00;97604.34;5139008;28;20062;-64
2023/03/29 07:12:57;;;;;;;1.05;1.05;;;;;;;0.18;100.00;97565.25;5138646;28;20112;-65
2023/03/29 07:15:23;;;;;;;2.25;1.60;;;;;;;-0.02;100.00;97558.81;5138944;28;20138;-63
2023/03/29 07:17:49;;;;;;;1.63;1.48;;;;;;;0.04;100.00;97566.69;5138694;28;20058;-65
2023/03/29 07:20:15;;;;;;;1.55;1.45;;;;;;;0.09;100.00;97590.72;5139097;28;20047;-67
2023/03/29 07:22:43;;;;;;;1.98;1.45;;;;;;;0.06;100.00;97602.94;5138990;28;20381;-67
2023/03/29 07:25:11;;;;;;;1.40;1.30;;;;;;;0.02;100.00;97617.44;5138905;28;20134;-65
2023/03/29 07:27:37;;;;;;;1.30;1.20;;;;;;;-0.02;100.00;97628.09;5140685;28;20090;-65
2023/03/29 07:30:09;;;;;;;1.80;1.52;;;;;;;-0.03;100.00;97624.59;5140345;28;20051;-66
2023/03/29 07:32:35;;;;;;;3.47;1.80;;;;;;;0.03;100.00;97649.41;5139305;28;20047;-66
2023/03/29 07:35:03;;;;;;;2.35;1.20;;;;;;;0.11;100.00;97672.81;5138560;27;20425;-66
2023/03/29 07:37:29;;;;;;;2.72;1.70;;;;;;;0.25;100.00;97685.19;5139017;28;20078;-66
2023/03/29 07:39:55;;;;;;;1.77;1.60;;;;;;;0.43;100.00;97662.31;5138583;28;20062;-62
2023/03/29 07:42:22;;;;;;;2.85;1.67;;;;;;;0.37;100.00;97656.38;5138935;28;20051;-67
2023/03/29 07:44:48;;;;;;;6.18;1.98;;;;;;;0.27;100.00;97656.81;5138218;28;20047;-67
2023/03/29 07:47:14;;;;;;;2.40;1.55;;;;;;;0.61;100.00;97679.88;5138637;28;20384;-66
2023/03/29 07:49:41;;;;;;;2.08;1.33;;;;;;;0.71;100.00;97646.28;5138638;28;20058;-65
2023/03/29 07:52:06;;;;;;;2.15;1.48;;;;;;;0.71;100.00;97646.28;5138218;28;20420;-64
2023/03/29 07:54:33;;;;;;;3.40;1.80;;;;;;;0.53;100.00;97626.81;5138554;28;20062;-66
2023/03/29 07:56:59;;;;;;;1.20;1.10;;;;;;;0.81;100.00;97601.88;5138219;28;20091;-63
2023/03/29 07:59:26;;;;;;;2.15;1.75;;;;;;;0.73;100.00;97563.09;5138410;27;20051;-64
2023/03/29 08:01:54;;;;;;;5.25;1.40;;;;;;;0.86;100.00;97580.84;5138099;28;20337;-67
2023/03/29 08:04:20;;;;;;;1.60;0.90;;;;;;;0.61;100.00;97587.41;5138429;27;20086;-65
2023/03/29 08:06:47;;;;;;;1.23;1.13;;;;;;;0.45;100.00;97582.66;5138187;28;20055;-65
2023/03/29 08:09:13;;;;;;;1.05;0.90;;;;;;;0.29;100.00;97591.75;5138491;28;20047;-69
2023/03/29 08:11:39;;;;;;;5.35;1.65;;;;;;;0.26;100.00;97612.06;5138061;28;20047;-64
2023/03/29 08:14:06;;;;;;;1.48;1.20;;;;;;;0.35;100.00;97655.91;5138546;28;20047;-67
2023/03/29 08:16:32;;;;;;;5.15;1.25;;;;;;;0.35;100.00;97655.91;5138300;28;20395;-65
2023/03/29 08:18:58;;;;;;;1.88;1.48;;;;;;;0.36;100.00;97641.28;5138114;28;20143;-66
2023/03/29 08:21:25;;;;;;;7.05;1.08;;;;;;;0.04;100.00;97650.22;5138013;28;20093;-63
2023/03/29 08:23:51;;;;;;;1.05;0.90;;;;;;;0.09;100.00;97676.94;5137667;28;20043;-66
2023/03/29 08:26:17;;;;;;;2.78;1.17;;;;;;;0.30;100.00;97691.19;5137870;28;20138;-63
2023/03/29 08:28:44;;;;;;;1.58;1.40;;;;;;;0.30;100.00;97701.97;5137841;28;20221;-66
2023/03/29 08:31:11;;;;;;;1.20;1.10;;;;;;;0.30;100.00;97691.19;5137677;28;20427;-63
2023/03/29 08:33:37;;;;;;;1.20;1.10;;;;;;;0.40;100.00;97684.53;5137856;28;20327;-66
2023/03/29 08:36:04;;;;;;;2.35;1.65;;;;;;;0.60;100.00;97662.13;5137978;27;20138;-64
2023/03/29 08:38:30;;;;;;;1.30;1.20;;;;;;;0.68;100.00;97660.44;5137426;28;20154;-64
2023/03/29 08:40:56;;;;;;;1.98;1.08;;;;;;;0.88;100.00;97651.44;5138006;28;20055;-62
2023/03/29 08:43:59;;;;;;;1.85;1.27;;;;;;;0.75;100.00;97641.00;5137383;28;20089;-66
2023/03/29 08:46:35;;;;;;;1.33;1.23;;;;;;;0.81;100.00;97643.13;5137716;28;20080;-67
2023/03/29 08:49:05;;;;;;;3.75;1.33;;;;;;;1.01;100.00;97641.44;5138144;28;20047;-67
2023/03/29 08:51:36;;;;;;;0.80;0.80;;;;;;;1.03;100.00;97616.81;5137582;28;20112;-66
2023/03/29 08:54:05;;;;;;;1.65;1.20;;;;;;;0.87;100.00;97611.34;5137951;28;20164;-65
2023/03/29 08:56:35;;;;;;;2.30;1.60;;;;;;;0.82;100.00;97617.72;5137651;28;20062;-70
2023/03/29 08:59:02;;;;;;;1.65;1.10;;;;;;;1.15;100.00;97608.69;5138020;28;20458;-71
2023/03/29 09:01:33;;;;;;;0.93;0.93;;;;;;;0.84;100.00;97588.50;5137376;28;20190;-65
2023/03/29 09:04:05;;;;;;;3.25;1.15;;;;;;;1.04;100.00;97596.81;5137322;28;20139;-66
2023/03/29 09:06:31;;;;;;;6.93;0.93;;;;;;;0.82;100.00;97600.75;5137325;27;20138;-67
2023/03/29 09:08:57;;;;;;;1.98;1.05;;;;;;;0.74;100.00;97634.81;5137532;28;20086;-66
2023/03/29 09:11:51;;;;;;;1.67;1.20;;;;;;;0.72;100.00;97653.25;5137101;27;20092;-66
2023/03/29 09:14:42;;;;;;;1.10;1.10;;;;;;;0.77;100.00;97679.19;5134493;28;20043;-65
2023/03/29 09:17:22;;;;;;;0.93;0.93;;;;;;;0.39;100.00;97656.81;5137611;28;20047;-66
2023/03/29 09:20:00;;;;;;;0.80;0.75;;;;;;;0.76;100.00;97700.00;5137011;28;20068;-66
2023/03/29 09:22:36;;;;;;;5.25;1.23;;;;;;;1.21;100.00;97704.50;5137221;28;20134;-64
2023/03/29 09:25:12;;;;;;;0.90;0.90;;;;;;;1.10;100.00;97684.50;5136846;28;20047;-68
2023/03/29 09:27:46;;;;;;;3.45;1.40;;;;;;;1.26;100.00;97681.91;5136913;28;20070;-65
2023/03/29 09:30:20;;;;;;;2.95;1.27;;;;;;;1.61;100.00;97652.47;5137246;28;20047;-65
2023/03/29 09:32:51;;;;;;;2.08;1.30;;;;;;;1.01;100.00;97614.47;5137093;28;20405;-63
2023/03/29 09:35:22;;;;;;;4.68;1.33;;;;;;;1.95;100.00;97615.94;5137021;27;20089;-65
2023/03/29 09:37:50;;;;;;;1.65;1.55;;;;;;;1.69;100.00;97575.88;5137317;28;20145;-65
2023/03/29 09:40:21;;;;;;;1.20;1.10;;;;;;;1.29;100.00;97576.72;5136999;28;20200;-63
2023/03/29 09:42:50;;;;;;;1.92;1.67;;;;;;;0.94;100.00;97581.88;5137151;28;20082;-65
2023/03/29 09:45:16;;;;;;;2.05;1.30;;;;;;;1.95;100.00;97601.66;5136918;28;20047;-64
2023/03/29 09:47:47;;;;;;;1.55;0.70;;;;;;;2.11;100.00;97573.50;5137023;28;20446;-64
2023/03/29 09:50:19;;;;;;;3.13;1.73;;;;;;;2.50;100.00;97579.13;5136843;28;20332;-67
2023/03/29 09:52:48;;;;;;;1.88;1.55;;;;;;;2.47;100.00;97597.97;5137111;28;20061;-65
2023/03/29 09:55:16;;;;;;;1.95;1.60;;;;;;;2.54;100.00;97617.06;5136609;28;20115;-68
2023/03/29 09:57:42;;;;;;;1.52;1.40;;;;;;;2.47;100.00;97652.06;5137016;28;20057;-65
2023/03/29 10:00:09;;;;;;;2.17;1.48;;;;;;;2.22;100.00;97654.91;5136784;28;20047;-57
2023/03/29 10:02:35;;;;;;;1.23;1.08;;;;;;;3.04;100.00;97646.09;5136385;28;20047;-67
2023/03/29 10:05:04;;;;;;;1.27;1.17;;;;;;;3.84;100.00;97681.88;5137110;27;20095;-64
2023/03/29 10:07:43;;;;;;;1.15;1.15;;;;;;;4.27;100.00;97749.75;5136628;28;20058;-63
2023/03/29 10:10:18;;;;;;;2.17;1.40;;;;;;;4.39;100.00;97796.50;5136654;28;20130;-61
2023/03/29 10:12:49;;;;;;;1.88;1.10;;;;;;;3.70;100.00;97839.56;5136113;28;20088;-60
2023/03/29 10:15:16;;;;;;;2.05;1.40;;;;;;;3.52;100.00;97849.97;5136683;28;20147;-66
2023/03/29 10:17:44;;;;;;;1.50;1.40;;;;;;;3.19;100.00;97850.28;5136179;28;20058;-65
2023/03/29 10:20:15;;;;;;;3.30;0.80;;;;;;;3.46;100.00;97837.03;5136452;28;20051;-65
2023/03/29 10:22:47;;;;;;;1.88;1.10;;;;;;;3.38;100.00;97859.69;5136575;27;20043;-65
2023/03/29 10:25:16;;;;;;;1.00;0.88;;;;;;;2.85;100.00;97886.91;5140100;28;20150;-62
2023/03/29 10:27:44;;;;;;;0.75;0.75;;;;;;;2.59;100.00;97863.00;5140037;28;20047;-64
2023/03/29 10:30:17;;;;;;;0.68;0.68;;;;;;;2.46;100.00;97848.72;5139945;28;20138;-65
2023/03/29 10:32:44;;;;;;;2.22;0.80;;;;;;;1.99;100.00;97846.56;5139851;28;20093;-65
2023/03/29 10:35:22;;;;;;;1.23;0.73;;;;;;;1.76;100.00;97846.25;5139784;27;20054;-64
2023/03/29 10:37:51;;;;;;;0.70;0.70;;;;;;;1.46;100.00;97823.31;5140187;28;20051;-63
2023/03/29 10:40:21;;;;;;;2.40;1.00;;;;;;;1.79;100.00;97793.47;5139600;28;20062;-63
2023/03/29 10:42:48;;;;;;;1.15;0.93;;;;;;;1.85;100.00;97811.81;5139889;28;20059;-66
2023/03/29 10:45:24;;;;;;;6.53;1.30;;;;;;;1.74;100.00;97837.72;5139358;28;20087;-69
2023/03/29 10:47:50;;;;;;;2.63;1.30;;;;;;;1.59;100.00;97835.69;5139320;28;20066;-69
2023/03/29 10:50:16;;;;;;;4.47;0.98;;;;;;;1.68;100.00;97806.66;5140673;28;20051;-65
2023/03/29 10:52:42;;;;;;;1.38;1.10;;;;;;;1.47;100.00;97836.50;5141191;28;20142;-66
2023/03/29 10:55:12;;;;;;;0.80;0.80;;;;;;;1.64;100.00;97838.97;5140144;28;20047;-71
2023/03/29 10:57:49;;;;;;;0.95;0.95;;;;;;;1.72;100.00;97836.47;5139440;28;20105;-66
2023/03/29 11:00:19;;;;;;;1.10;1.00;;;;;;;1.95;100.00;97872.72;5139499;28;20452;-69
2023/03/29 11:03:25;;;;;;;1.92;1.08;;;;;;;2.15;100.00;97899.97;5139123;28;20043;-70
2023/03/29 11:05:56;;;;;;;4.80;1.17;;;;;;;2.23;100.00;97910.66;5139375;27;20061;-66
2023/03/29 11:08:37;;;;;;;0.80;0.80;;;;;;;2.28;100.00;97904.22;5139473;28;20115;-68
2023/03/29 11:11:15;;;;;;;0.68;0.68;;;;;;;2.05;100.00;97960.69;5139149;28;20047;-67
2023/03/29 11:13:50;;;;;;;3.42;0.57;;;;;;;2.25;100.00;97956.28;5139096;28;20108;-68
2023/03/29 11:16:26;;;;;;;1.35;1.00;;;;;;;2.00;100.00;97972.50;5139067;28;20093;-68
2023/03/29 11:19:18;;;;;;;1.17;0.90;;;;;;;1.51;100.00;97944.63;5138975;28;20430;-69
2023/03/29 11:21:51;;;;;;;0.75;0.70;;;;;;;1.63;100.00;97955.44;5135955;28;20050;-70
2023/03/29 11:24:26;;;;;;;1.55;1.15;;;;;;;1.59;100.00;97958.03;5139065;28;20061;-68
2023/03/29 11:27:08;;;;;;;0.88;0.88;;;;;;;1.63;100.00;97931.13;5139240;28;20055;-67
2023/03/29 11:29:43;;;;;;;2.90;0.93;;;;;;;1.83;100.00;97924.06;5138956;28;20142;-68
2023/03/29 11:32:15;;;;;;;1.85;1.35;;;;;;;1.92;100.00;97932.84;5139432;28;20385;-64
2023/03/29 11:34:56;;;;;;;1.00;0.88;;;;;;;1.89;100.00;97933.53;5138599;27;20142;-67
2023/03/29 11:37:27;;;;;;;0.95;0.82;;;;;;;2.29;100.00;97936.31;5138908;28;20051;-66